Aérodrome :
LOGIN :

S'inscrire | Disclaimer

   EN    FR    IT 

 










Légende :    VFR   VFR Marginal   IFR   IFR Intensif   IFR Très Intensif
Visi : 
Plafond : 
>= 8 km
>= 3000ft
5 à 8 km
1000 à 3000 ft
1500m à 5 km
500 à 1000 ft
800 à 1500m
200 à 500 ft
< 800m
< 200 ft
Symboles :   Orages  Brouillard  Fortes neiges  Fortes précipitations  Vent > 20 kt
SIGMETs :   Divers  Orages  Givrage  Turbulence  Onde Orograph.  Cendres Volcan.






- Altitude de l'aérodrome : 79 ft
- Code IATA : SPU


LDSP - Split

DERNIER METAR :
  • 150900Z 09005KT 040V130 CAVOK 20/15 Q1019 NOSIG

METARs EXPIRÉS :
  • 150830Z 09003KT 050V190 CAVOK 20/15 Q1019 NOSIG
  • 150800Z VRB01KT 9999 FEW015 19/14 Q1019 NOSIG
  • 150730Z 10003KT 050V170 9999 FEW015 18/13 Q1019 NOSIG
  • 150700Z VRB01KT 9999 FEW015 18/14 Q1019 NOSIG
  • 150630Z 01002KT 9999 FEW010 17/14 Q1019 NOSIG

TAF TAF LDSP
Valide du 15 à 06h jusqu'au 16 à 06h UTC


150525Z 1506/1606 10008KT 9999 FEW020 TX22/1512Z TN15/1506Z
TEMPO 1516/1606 09012KT



MET'MAP, la Météo Aéronautique d'un coup d'oeil ! - Copyright ORBIFLY Décembre 2007 - Disclaimer

ORBIFLY MET'MAP TEAM :

Programmation & Développement : Alexandra Zaïnal
Conception & Développement : Baudouin d'Aumeries
Co-Programmation & Développement : Marc-Olivier Méhu
Soutien technique & logistique : Manuel Goepfert

Contact : metmap@orbifly.com




SOURCES & CREDITS :

   NOAA